Terminal Aerodrome Forecast
Issued by NWS Paducah, KY

Home | Current Version | Previous Version | Text Only | Print | Product List | Glossary On
Versions: 1 2 3 4 5 6 7 8 9 10 11 12 13 14 15 16 17 18
000
FTUS43 KPAH 021133
TAFPAH
TAF
KPAH 021133Z 0212/0312 VRB03KT 5SM BR SCT200
     FM021300 VRB04KT P6SM SCT045
     FM030100 00000KT P6SM SKC
     FM030900 00000KT 4SM BR SKC=

USA.gov is the U.S. government's official web portal to all federal, state and local government web resources and services.